Time;durP1;ratioP1;P1;durP2;ratioP2;P2;SDS_P1;SDS_P2;PMS_P1;PMS_P2;Temp;Humidity;BMP_temperature;BMP_pressure;BME280_temperature;BME280_humidity;BME280_pressure;Samples;Min_cycle;Max_cycle;Signal;HPM_P1;HPM_P2
2021/09/28 00:02:15;;;;;;;11.63;7.25;;;;;;;;;;5071998;28;20056;-54
2021/09/28 00:04:41;;;;;;;13.05;6.88;;;;;;;;;;5071986;28;20384;-56
2021/09/28 00:07:07;;;;;;;12.35;6.43;;;;;;;;;;5070011;28;20025;-57
2021/09/28 00:09:33;;;;;;;12.25;7.53;;;;;;;;;;5069551;28;20028;-57
2021/09/28 00:11:59;;;;;;;13.50;7.63;;;;;;;;;;5072023;28;20043;-56
2021/09/28 00:14:25;;;;;;;11.63;7.05;;;;;;;;;;5070829;28;20024;-58
2021/09/28 00:16:52;;;;;;;15.20;7.97;;;;;;;;;;5063383;28;20028;-57
2021/09/28 00:19:18;;;;;;;12.57;7.22;;;;;;;;;;5071372;28;20123;-58
2021/09/28 00:21:44;;;;;;;13.73;7.53;;;;;;;;;;5072115;28;20064;-57
2021/09/28 00:24:10;;;;;;;12.20;7.03;;;;;;;;;;5065416;28;20031;-58
2021/09/28 00:26:37;;;;;;;16.27;8.00;;;;;;;;;;5063808;28;20021;-56
2021/09/28 00:29:03;;;;;;;13.23;6.95;;;;;;;;;;5069154;28;20549;-58
2021/09/28 00:31:29;;;;;;;18.27;9.00;;;;;;;;;;5069558;28;20029;-55
2021/09/28 00:33:56;;;;;;;14.30;7.30;;;;;;;;;;5071804;28;20368;-56
2021/09/28 00:36:23;;;;;;;13.90;6.63;;;;;;;;;;5069968;28;20041;-58
2021/09/28 00:38:49;;;;;;;15.25;7.80;;;;;;;;;;5069639;28;20033;-57
2021/09/28 00:41:16;;;;;;;13.82;7.20;;;;;;;;;;5069383;28;20736;-57
2021/09/28 00:43:45;;;;;;;12.07;7.30;;;;;;;;;;5071121;28;20040;-58
2021/09/28 00:46:12;;;;;;;13.07;6.88;;;;;;;;;;5069846;28;20028;-56
2021/09/28 00:48:38;;;;;;;13.95;7.70;;;;;;;;;;5069642;28;20043;-58
2021/09/28 00:51:04;;;;;;;11.65;6.85;;;;;;;;;;5066747;28;20458;-57
2021/09/28 00:53:31;;;;;;;13.88;7.13;;;;;;;;;;5069739;28;20517;-56
2021/09/28 00:55:57;;;;;;;12.55;7.18;;;;;;;;;;5064009;28;20036;-57
2021/09/28 00:58:23;;;;;;;11.32;6.63;;;;;;;;;;5070307;28;20182;-57
2021/09/28 01:00:49;;;;;;;12.57;7.43;;;;;;;;;;5071904;28;20036;-59
2021/09/28 01:03:15;;;;;;;11.20;7.05;;;;;;;;;;5071548;28;20441;-55
2021/09/28 01:05:41;;;;;;;12.68;6.97;;;;;;;;;;5067293;28;20516;-57
2021/09/28 01:08:07;;;;;;;13.27;7.72;;;;;;;;;;5066167;28;20029;-55
2021/09/28 01:10:33;;;;;;;13.68;7.88;;;;;;;;;;5068598;28;20032;-57
2021/09/28 01:12:59;;;;;;;12.27;7.13;;;;;;;;;;5071249;28;20116;-56
2021/09/28 01:15:25;;;;;;;11.73;7.07;;;;;;;;;;5071288;28;20129;-54
2021/09/28 01:17:51;;;;;;;12.90;7.28;;;;;;;;;;5072296;28;20147;-56
2021/09/28 01:20:17;;;;;;;13.43;7.30;;;;;;;;;;5072651;28;20043;-55
2021/09/28 01:22:43;;;;;;;12.80;6.65;;;;;;;;;;5075640;28;20037;-56
2021/09/28 01:25:09;;;;;;;13.88;6.72;;;;;;;;;;5068303;28;21767;-56
2021/09/28 01:27:36;;;;;;;11.82;6.38;;;;;;;;;;5068385;28;20484;-57
2021/09/28 01:30:03;;;;;;;12.40;7.15;;;;;;;;;;5072743;28;20515;-54
2021/09/28 01:32:29;;;;;;;13.18;7.13;;;;;;;;;;5070698;28;20041;-55
2021/09/28 01:34:55;;;;;;;15.25;7.47;;;;;;;;;;5069111;28;20013;-51
2021/09/28 01:37:21;;;;;;;11.27;6.57;;;;;;;;;;5070504;28;20066;-53
2021/09/28 01:39:47;;;;;;;13.45;7.22;;;;;;;;;;5073037;28;20066;-54
2021/09/28 01:42:13;;;;;;;13.70;7.00;;;;;;;;;;5074464;28;20029;-53
2021/09/28 01:44:39;;;;;;;12.02;6.55;;;;;;;;;;5072250;28;20103;-59
2021/09/28 01:47:05;;;;;;;14.38;7.35;;;;;;;;;;5074948;28;20032;-55
2021/09/28 01:49:31;;;;;;;13.10;7.35;;;;;;;;;;5074562;28;20548;-59
2021/09/28 01:51:57;;;;;;;12.27;7.10;;;;;;;;;;5073286;28;20040;-57
2021/09/28 01:54:23;;;;;;;12.07;6.80;;;;;;;;;;5074561;28;20420;-57
2021/09/28 01:56:50;;;;;;;12.23;6.95;;;;;;;;;;5065744;28;20041;-54
2021/09/28 01:59:16;;;;;;;10.90;6.25;;;;;;;;;;5074418;28;20111;-56
2021/09/28 02:01:42;;;;;;;12.13;6.97;;;;;;;;;;5068317;28;20049;-57
2021/09/28 02:04:08;;;;;;;14.13;7.30;;;;;;;;;;5074823;28;20044;-53
2021/09/28 02:06:40;;;;;;;11.88;7.40;;;;;;;;;;5072070;28;20035;-56
2021/09/28 02:09:07;;;;;;;13.18;6.93;;;;;;;;;;5066517;28;20364;-57
2021/09/28 02:11:33;;;;;;;14.50;8.18;;;;;;;;;;5072681;28;20028;-55
2021/09/28 02:14:00;;;;;;;11.68;7.30;;;;;;;;;;5070522;28;20480;-57
2021/09/28 02:16:26;;;;;;;13.82;7.15;;;;;;;;;;5067534;28;20140;-54
2021/09/28 02:18:52;;;;;;;13.43;7.78;;;;;;;;;;5073341;28;20127;-54
2021/09/28 02:21:18;;;;;;;14.18;7.55;;;;;;;;;;5072006;28;20021;-55
2021/09/28 02:23:44;;;;;;;14.65;7.85;;;;;;;;;;5056110;28;20124;-57
2021/09/28 02:26:10;;;;;;;13.70;6.97;;;;;;;;;;5071100;28;20095;-57
2021/09/28 02:28:36;;;;;;;11.52;7.13;;;;;;;;;;5074192;28;20449;-55
2021/09/28 02:31:02;;;;;;;13.98;6.65;;;;;;;;;;5073812;28;20038;-57
2021/09/28 02:33:28;;;;;;;12.73;6.55;;;;;;;;;;5067565;28;20400;-56
2021/09/28 02:35:54;;;;;;;14.02;7.88;;;;;;;;;;5068197;28;20194;-54
2021/09/28 02:38:20;;;;;;;13.38;7.57;;;;;;;;;;5067643;28;20063;-54
2021/09/28 02:40:46;;;;;;;14.60;7.15;;;;;;;;;;5075096;28;20354;-52
2021/09/28 02:43:13;;;;;;;14.95;7.18;;;;;;;;;;5070072;28;20028;-55
2021/09/28 02:45:40;;;;;;;13.65;7.78;;;;;;;;;;5071687;28;20028;-53
2021/09/28 02:48:06;;;;;;;12.18;7.03;;;;;;;;;;5059025;28;20021;-52
2021/09/28 02:50:33;;;;;;;15.02;8.00;;;;;;;;;;5071818;28;20016;-56
2021/09/28 02:53:00;;;;;;;13.38;7.05;;;;;;;;;;5069776;28;20090;-56
2021/09/28 02:55:27;;;;;;;11.45;7.30;;;;;;;;;;5059572;28;20163;-55
2021/09/28 02:57:52;;;;;;;13.23;7.30;;;;;;;;;;5073292;28;20040;-53
2021/09/28 03:00:18;;;;;;;15.73;7.05;;;;;;;;;;5072634;28;20392;-57
2021/09/28 03:02:44;;;;;;;10.98;6.72;;;;;;;;;;5073494;28;20025;-57
2021/09/28 03:05:11;;;;;;;13.13;7.15;;;;;;;;;;5072110;28;20524;-53
2021/09/28 03:07:37;;;;;;;13.00;7.20;;;;;;;;;;5064905;28;20420;-57
2021/09/28 03:10:06;;;;;;;11.45;6.25;;;;;;;;;;5068588;28;20036;-54
2021/09/28 03:12:33;;;;;;;11.05;6.55;;;;;;;;;;5072970;28;20032;-55
2021/09/28 03:14:59;;;;;;;10.80;6.30;;;;;;;;;;5071632;28;20530;-55
2021/09/28 03:17:25;;;;;;;12.48;6.75;;;;;;;;;;5073264;28;20048;-51
2021/09/28 03:19:51;;;;;;;10.60;6.13;;;;;;;;;;5071372;28;20032;-52
2021/09/28 03:22:18;;;;;;;11.88;6.45;;;;;;;;;;5077232;28;20044;-50
2021/09/28 03:24:44;;;;;;;11.95;6.40;;;;;;;;;;5073156;28;20091;-53
2021/09/28 03:27:10;;;;;;;8.20;5.20;;;;;;;;;;5073095;28;20460;-54
2021/09/28 03:29:36;;;;;;;9.85;5.85;;;;;;;;;;5070166;28;20064;-54
2021/09/28 03:32:02;;;;;;;8.73;5.63;;;;;;;;;;5072777;28;20032;-52
2021/09/28 03:34:28;;;;;;;8.52;5.05;;;;;;;;;;5072999;28;20082;-57
2021/09/28 03:36:54;;;;;;;9.27;5.18;;;;;;;;;;5072997;28;20138;-56
2021/09/28 03:39:20;;;;;;;9.60;5.47;;;;;;;;;;5066134;28;20028;-57
2021/09/28 03:41:46;;;;;;;9.82;5.82;;;;;;;;;;5067271;28;20059;-57
2021/09/28 03:44:12;;;;;;;9.13;5.22;;;;;;;;;;5072542;28;20085;-54
2021/09/28 03:46:38;;;;;;;8.60;4.68;;;;;;;;;;5072929;28;20473;-56
2021/09/28 03:49:04;;;;;;;11.23;4.97;;;;;;;;;;5070653;28;20036;-54
2021/09/28 03:51:30;;;;;;;6.82;4.40;;;;;;;;;;5068671;28;20445;-53
2021/09/28 03:53:56;;;;;;;8.07;4.20;;;;;;;;;;5072263;28;20036;-56
2021/09/28 03:56:22;;;;;;;5.88;3.80;;;;;;;;;;5070054;28;20025;-53
2021/09/28 03:58:48;;;;;;;5.40;3.25;;;;;;;;;;5071829;28;20109;-51
2021/09/28 04:01:14;;;;;;;7.20;3.72;;;;;;;;;;5069474;28;20116;-50
2021/09/28 04:03:41;;;;;;;4.78;2.55;;;;;;;;;;5071007;28;20475;-53
2021/09/28 04:06:07;;;;;;;7.93;3.70;;;;;;;;;;5071894;28;20507;-52
2021/09/28 04:08:33;;;;;;;7.45;2.75;;;;;;;;;;5065843;28;20094;-57
2021/09/28 04:10:59;;;;;;;5.63;2.80;;;;;;;;;;5066363;28;20484;-57
2021/09/28 04:13:25;;;;;;;4.10;2.33;;;;;;;;;;5069227;28;20111;-56
2021/09/28 04:15:52;;;;;;;3.28;2.13;;;;;;;;;;5070679;28;20033;-55
2021/09/28 04:18:18;;;;;;;4.45;2.33;;;;;;;;;;5067684;28;20066;-56
2021/09/28 04:20:45;;;;;;;4.75;2.92;;;;;;;;;;5072428;28;20090;-54
2021/09/28 04:23:12;;;;;;;6.50;1.80;;;;;;;;;;5067806;28;20041;-53
2021/09/28 04:25:38;;;;;;;2.55;1.90;;;;;;;;;;5062089;28;20024;-56
2021/09/28 04:28:04;;;;;;;2.13;1.27;;;;;;;;;;5061806;28;20032;-51
2021/09/28 04:30:31;;;;;;;4.05;1.75;;;;;;;;;;5069030;28;20033;-51
2021/09/28 04:32:57;;;;;;;6.18;1.92;;;;;;;;;;5071302;28;20071;-55
2021/09/28 04:35:23;;;;;;;2.20;1.30;;;;;;;;;;5066813;28;20040;-54
2021/09/28 04:37:49;;;;;;;1.17;0.93;;;;;;;;;;5071458;28;20036;-51
2021/09/28 04:40:15;;;;;;;2.08;1.35;;;;;;;;;;5071805;28;20028;-55
2021/09/28 04:42:42;;;;;;;3.17;1.27;;;;;;;;;;5070422;28;20032;-52
2021/09/28 04:45:08;;;;;;;5.72;1.70;;;;;;;;;;5071581;28;20345;-57
2021/09/28 04:47:34;;;;;;;1.52;1.05;;;;;;;;;;5071390;28;20055;-57
2021/09/28 04:50:00;;;;;;;2.17;1.20;;;;;;;;;;5071652;28;20064;-53
2021/09/28 04:52:26;;;;;;;4.00;1.20;;;;;;;;;;5070892;28;20024;-57
2021/09/28 04:54:52;;;;;;;1.83;0.85;;;;;;;;;;5061244;28;20515;-57
2021/09/28 04:57:19;;;;;;;1.90;1.05;;;;;;;;;;5061112;28;20033;-56
2021/09/28 04:59:45;;;;;;;2.35;1.00;;;;;;;;;;5064955;28;20529;-57
2021/09/28 05:02:11;;;;;;;2.47;1.00;;;;;;;;;;5069553;28;20036;-56
2021/09/28 05:04:37;;;;;;;2.55;1.27;;;;;;;;;;5077096;28;20020;-52
2021/09/28 05:07:03;;;;;;;2.17;1.40;;;;;;;;;;5070172;28;20029;-55
2021/09/28 05:09:30;;;;;;;3.20;1.50;;;;;;;;;;5065725;28;20056;-53
2021/09/28 05:11:56;;;;;;;1.98;0.80;;;;;;;;;;5069541;28;20083;-55
2021/09/28 05:14:23;;;;;;;1.33;0.88;;;;;;;;;;5070166;28;20032;-54
2021/09/28 05:16:48;;;;;;;3.35;0.95;;;;;;;;;;5065935;28;20029;-52
2021/09/28 05:19:14;;;;;;;3.85;0.88;;;;;;;;;;5068249;28;20086;-57
2021/09/28 05:21:40;;;;;;;0.95;0.60;;;;;;;;;;5071247;28;20027;-57
2021/09/28 05:24:09;;;;;;;3.63;0.90;;;;;;;;;;5069345;28;20051;-57
2021/09/28 05:26:35;;;;;;;1.23;0.70;;;;;;;;;;5068623;28;20565;-56
2021/09/28 05:29:01;;;;;;;0.93;0.70;;;;;;;;;;5067447;28;20037;-55
2021/09/28 05:31:27;;;;;;;1.20;0.88;;;;;;;;;;5069383;28;20786;-57
2021/09/28 05:33:53;;;;;;;1.83;0.70;;;;;;;;;;5064046;28;20033;-53
2021/09/28 05:36:20;;;;;;;2.00;0.90;;;;;;;;;;5070252;28;20035;-54
2021/09/28 05:38:45;;;;;;;5.07;0.90;;;;;;;;;;5067922;28;20032;-52
2021/09/28 05:41:11;;;;;;;1.50;0.73;;;;;;;;;;5078572;28;20101;-54
2021/09/28 05:43:39;;;;;;;2.20;0.73;;;;;;;;;;5056268;28;20108;-51
2021/09/28 05:46:05;;;;;;;2.78;1.17;;;;;;;;;;5069736;28;20016;-55
2021/09/28 05:48:31;;;;;;;1.33;0.73;;;;;;;;;;5070897;28;20119;-54
2021/09/28 05:50:57;;;;;;;1.45;0.80;;;;;;;;;;5070569;28;20104;-53
2021/09/28 05:53:25;;;;;;;1.10;0.70;;;;;;;;;;5070260;28;20436;-54
2021/09/28 05:55:51;;;;;;;1.23;0.73;;;;;;;;;;5066561;28;20036;-56
2021/09/28 05:58:17;;;;;;;0.90;0.68;;;;;;;;;;5066039;28;20048;-57
2021/09/28 06:00:43;;;;;;;0.77;0.50;;;;;;;;;;5068743;28;20024;-56
2021/09/28 06:03:09;;;;;;;0.90;0.60;;;;;;;;;;5061691;28;20025;-57
2021/09/28 06:05:36;;;;;;;3.33;0.90;;;;;;;;;;5068605;28;20389;-57
2021/09/28 06:08:02;;;;;;;2.38;0.60;;;;;;;;;;5074527;28;20021;-55
2021/09/28 06:10:28;;;;;;;1.38;0.68;;;;;;;;;;5069680;28;20028;-57
2021/09/28 06:12:54;;;;;;;2.50;1.38;;;;;;;;;;5073116;28;20131;-55
2021/09/28 06:15:20;;;;;;;1.77;0.80;;;;;;;;;;5067566;28;20392;-58
2021/09/28 06:17:46;;;;;;;4.15;0.70;;;;;;;;;;5064051;28;20052;-53
2021/09/28 06:20:12;;;;;;;2.72;0.75;;;;;;;;;;5069371;28;20732;-53
2021/09/28 06:22:39;;;;;;;4.25;0.80;;;;;;;;;;5064201;28;20047;-55
2021/09/28 06:25:06;;;;;;;1.00;0.60;;;;;;;;;;5068316;28;20031;-54
2021/09/28 06:27:32;;;;;;;3.72;0.80;;;;;;;;;;5069954;28;20025;-55
2021/09/28 06:29:58;;;;;;;3.42;0.75;;;;;;;;;;5067216;28;20520;-54
2021/09/28 06:32:24;;;;;;;3.33;0.60;;;;;;;;;;5066074;28;20028;-53
2021/09/28 06:34:50;;;;;;;2.08;1.00;;;;;;;;;;5071017;28;20044;-57
2021/09/28 06:37:16;;;;;;;2.92;1.17;;;;;;;;;;5075422;28;20081;-55
2021/09/28 06:39:42;;;;;;;2.28;0.75;;;;;;;;;;5068746;28;20099;-55
2021/09/28 06:42:08;;;;;;;1.60;0.63;;;;;;;;;;5069408;28;20528;-53
2021/09/28 06:44:34;;;;;;;1.00;0.70;;;;;;;;;;5069840;28;20024;-56
2021/09/28 06:47:00;;;;;;;0.88;0.70;;;;;;;;;;5068632;28;20039;-55
2021/09/28 06:49:26;;;;;;;1.45;0.70;;;;;;;;;;5068303;28;20124;-55
2021/09/28 06:51:52;;;;;;;2.08;0.65;;;;;;;;;;5070169;28;20101;-58
2021/09/28 06:54:19;;;;;;;1.05;0.85;;;;;;;;;;5069220;28;20025;-54
2021/09/28 06:56:45;;;;;;;1.30;0.65;;;;;;;;;;5073341;28;20025;-55
2021/09/28 06:59:11;;;;;;;1.10;0.82;;;;;;;;;;5067505;28;20501;-56
2021/09/28 07:01:37;;;;;;;3.20;0.73;;;;;;;;;;5070966;28;20028;-51
2021/09/28 07:04:04;;;;;;;1.02;0.70;;;;;;;;;;5070162;28;20047;-56
2021/09/28 07:06:30;;;;;;;2.35;0.77;;;;;;;;;;5073306;28;20052;-58
2021/09/28 07:08:56;;;;;;;1.38;0.65;;;;;;;;;;5066771;28;20364;-55
2021/09/28 07:11:22;;;;;;;1.02;0.70;;;;;;;;;;5068220;28;20147;-56
2021/09/28 07:13:49;;;;;;;2.80;0.90;;;;;;;;;;5072212;28;20154;-55
2021/09/28 07:16:15;;;;;;;3.78;0.70;;;;;;;;;;5071810;28;20036;-55
2021/09/28 07:18:41;;;;;;;1.27;0.68;;;;;;;;;;5071292;28;20845;-55
2021/09/28 07:21:07;;;;;;;1.02;0.73;;;;;;;;;;5065886;28;20040;-57
2021/09/28 07:23:34;;;;;;;0.75;0.63;;;;;;;;;;5065877;28;20376;-56
2021/09/28 07:26:00;;;;;;;2.38;0.93;;;;;;;;;;5070814;28;20037;-56
2021/09/28 07:28:26;;;;;;;2.40;0.80;;;;;;;;;;5070942;28;20024;-56
2021/09/28 07:30:52;;;;;;;7.28;0.93;;;;;;;;;;5072459;28;20017;-55
2021/09/28 07:33:19;;;;;;;2.80;0.70;;;;;;;;;;5073063;28;20409;-55
2021/09/28 07:35:46;;;;;;;1.70;0.88;;;;;;;;;;5072848;28;20075;-51
2021/09/28 07:38:12;;;;;;;2.17;1.02;;;;;;;;;;5067350;28;20091;-52
2021/09/28 07:40:39;;;;;;;1.77;0.98;;;;;;;;;;5070989;28;20028;-51
2021/09/28 07:43:05;;;;;;;2.38;1.10;;;;;;;;;;5065370;28;20027;-55
2021/09/28 07:45:31;;;;;;;2.70;1.27;;;;;;;;;;5065817;28;20050;-57
2021/09/28 07:47:57;;;;;;;2.40;0.88;;;;;;;;;;5070853;28;20401;-56
2021/09/28 07:50:23;;;;;;;0.98;0.65;;;;;;;;;;5067054;28;20024;-54
2021/09/28 07:52:49;;;;;;;2.72;0.85;;;;;;;;;;5071064;28;20036;-54
2021/09/28 07:55:15;;;;;;;2.33;0.85;;;;;;;;;;5070776;28;20097;-55
2021/09/28 07:57:41;;;;;;;3.10;1.20;;;;;;;;;;5070188;28;20036;-52
2021/09/28 08:00:09;;;;;;;2.45;1.00;;;;;;;;;;5063454;28;20485;-54
2021/09/28 08:02:37;;;;;;;2.47;0.80;;;;;;;;;;5070973;28;20034;-52
2021/09/28 08:05:03;;;;;;;1.90;1.00;;;;;;;;;;5066723;28;20087;-55
2021/09/28 08:07:29;;;;;;;4.50;1.13;;;;;;;;;;5066558;28;20021;-53
2021/09/28 08:09:55;;;;;;;1.33;0.85;;;;;;;;;;5067259;28;20067;-54
2021/09/28 08:12:21;;;;;;;0.98;0.75;;;;;;;;;;5071599;28;20039;-56
2021/09/28 08:14:47;;;;;;;2.08;1.00;;;;;;;;;;5070109;28;20029;-54
2021/09/28 08:17:13;;;;;;;6.45;1.15;;;;;;;;;;5071424;28;20036;-56
2021/09/28 08:19:39;;;;;;;3.42;0.80;;;;;;;;;;5069171;28;20078;-57
2021/09/28 08:22:09;;;;;;;5.85;1.00;;;;;;;;;;5070162;28;20030;-57
2021/09/28 08:24:40;;;;;;;3.33;0.90;;;;;;;;;;5070734;28;20046;-58
2021/09/28 08:29:51;;;;;;;3.95;1.35;;;;;;;;;;5067119;28;20074;-58
2021/09/28 08:32:17;;;;;;;4.63;0.80;;;;;;;;;;5070058;28;20024;-55
2021/09/28 08:34:43;;;;;;;4.57;1.55;;;;;;;;;;5072177;28;20128;-55
2021/09/28 08:37:09;;;;;;;3.17;1.23;;;;;;;;;;5071807;28;20648;-57
2021/09/28 08:39:35;;;;;;;2.25;1.02;;;;;;;;;;5072958;28;20416;-52
2021/09/28 08:42:01;;;;;;;4.72;1.20;;;;;;;;;;5071824;28;20032;-54
2021/09/28 08:44:27;;;;;;;2.72;0.95;;;;;;;;;;5071268;28;20512;-54
2021/09/28 08:46:53;;;;;;;3.08;0.80;;;;;;;;;;5064198;28;20155;-52
2021/09/28 08:49:20;;;;;;;2.03;1.05;;;;;;;;;;5070449;28;20062;-53
2021/09/28 08:51:50;;;;;;;1.15;0.90;;;;;;;;;;5064756;28;20025;-53
2021/09/28 08:54:16;;;;;;;4.70;1.20;;;;;;;;;;5067347;28;20032;-55
2021/09/28 08:56:42;;;;;;;3.08;1.30;;;;;;;;;;5068432;28;20186;-55
2021/09/28 08:59:10;;;;;;;3.67;1.40;;;;;;;;;;5067810;28;20093;-53
2021/09/28 09:01:37;;;;;;;2.97;1.75;;;;;;;;;;5075522;28;20485;-57
2021/09/28 09:04:14;;;;;;;1.58;1.20;;;;;;;;;;5069935;28;20031;-57
2021/09/28 09:06:40;;;;;;;7.68;1.75;;;;;;;;;;5073545;28;20031;-57
2021/09/28 09:09:06;;;;;;;4.93;1.90;;;;;;;;;;5069983;28;20024;-57
2021/09/28 09:11:36;;;;;;;2.65;1.60;;;;;;;;;;5071731;28;20017;-57
2021/09/28 09:14:12;;;;;;;4.10;1.83;;;;;;;;;;5071305;28;20055;-56
2021/09/28 09:16:37;;;;;;;4.28;1.58;;;;;;;;;;5069643;28;20104;-55
2021/09/28 09:19:11;;;;;;;2.67;1.20;;;;;;;;;;5071069;28;20059;-56
2021/09/28 09:21:44;;;;;;;5.50;1.38;;;;;;;;;;5070698;28;20746;-58
2021/09/28 09:24:11;;;;;;;3.75;1.58;;;;;;;;;;5070569;28;20041;-58
2021/09/28 09:26:38;;;;;;;2.50;1.42;;;;;;;;;;5068393;28;20369;-58
2021/09/28 09:29:05;;;;;;;3.50;1.50;;;;;;;;;;5065756;28;20451;-58
2021/09/28 09:31:36;;;;;;;2.95;1.83;;;;;;;;;;5073442;28;20388;-56
2021/09/28 09:34:06;;;;;;;4.32;1.85;;;;;;;;;;5069133;28;20417;-57
2021/09/28 09:36:33;;;;;;;4.72;1.60;;;;;;;;;;5068741;28;20408;-57
2021/09/28 09:39:02;;;;;;;4.80;1.80;;;;;;;;;;5064687;28;20039;-55
2021/09/28 09:41:29;;;;;;;4.00;1.50;;;;;;;;;;5079266;28;20077;-52
2021/09/28 09:44:09;;;;;;;4.40;1.90;;;;;;;;;;5068149;28;20032;-53
2021/09/28 09:46:46;;;;;;;3.58;1.55;;;;;;;;;;5074790;28;20076;-52
2021/09/28 09:49:13;;;;;;;5.53;2.05;;;;;;;;;;5066732;28;20028;-52
2021/09/28 09:51:43;;;;;;;4.25;1.10;;;;;;;;;;5075203;28;20021;-53
2021/09/28 09:54:10;;;;;;;8.82;1.48;;;;;;;;;;5075130;28;20025;-52
2021/09/28 09:56:49;;;;;;;2.53;1.60;;;;;;;;;;5075216;28;20369;-51
2021/09/28 09:59:17;;;;;;;1.45;1.00;;;;;;;;;;5064882;28;20035;-51
2021/09/28 10:01:43;;;;;;;4.55;1.67;;;;;;;;;;5074928;28;20049;-58
2021/09/28 10:04:10;;;;;;;2.30;1.00;;;;;;;;;;5074657;28;20031;-57
2021/09/28 10:06:36;;;;;;;2.42;1.48;;;;;;;;;;5073563;28;20029;-56
2021/09/28 10:09:05;;;;;;;3.40;1.20;;;;;;;;;;5074391;28;20028;-55
2021/09/28 10:11:35;;;;;;;5.22;1.92;;;;;;;;;;5074643;28;20119;-53
2021/09/28 10:14:01;;;;;;;3.42;1.45;;;;;;;;;;5066053;28;20032;-52
2021/09/28 10:16:31;;;;;;;3.45;1.38;;;;;;;;;;5074514;28;20028;-57
2021/09/28 10:18:57;;;;;;;1.77;1.00;;;;;;;;;;5074173;28;20067;-58
2021/09/28 10:21:36;;;;;;;4.30;1.45;;;;;;;;;;5074513;28;20468;-55
2021/09/28 10:24:20;;;;;;;3.45;1.42;;;;;;;;;;5072732;28;20115;-55
2021/09/28 10:26:47;;;;;;;6.95;1.48;;;;;;;;;;5074324;28;20117;-58
2021/09/28 10:29:31;;;;;;;4.05;1.55;;;;;;;;;;5074077;28;20032;-54
2021/09/28 10:31:57;;;;;;;2.33;0.95;;;;;;;;;;5066828;28;20103;-54
2021/09/28 10:34:23;;;;;;;3.28;1.17;;;;;;;;;;5074370;28;20031;-54
2021/09/28 10:36:51;;;;;;;4.20;1.48;;;;;;;;;;5074551;28;20427;-53
2021/09/28 10:39:37;;;;;;;4.03;1.70;;;;;;;;;;5066491;28;20036;-54
2021/09/28 10:42:03;;;;;;;2.72;1.30;;;;;;;;;;5073270;28;20024;-53
2021/09/28 10:44:31;;;;;;;3.45;1.30;;;;;;;;;;5074203;28;20041;-55
2021/09/28 10:46:58;;;;;;;5.95;1.58;;;;;;;;;;5073751;28;20016;-56
2021/09/28 10:49:32;;;;;;;2.55;1.20;;;;;;;;;;5073676;28;20028;-54
2021/09/28 10:52:17;;;;;;;3.65;1.27;;;;;;;;;;5074147;28;20020;-52
2021/09/28 10:55:01;;;;;;;3.70;1.20;;;;;;;;;;5070920;28;20037;-51
2021/09/28 11:00:59;;;;;;;5.40;1.10;;;;;;;;;;5048452;28;20477;-55
2021/09/28 11:03:47;;;;;;;5.20;1.10;;;;;;;;;;5068294;28;20043;-55
2021/09/28 11:06:15;;;;;;;3.83;1.08;;;;;;;;;;5073814;28;20029;-53
2021/09/28 11:08:41;;;;;;;2.47;0.90;;;;;;;;;;5073758;28;20074;-57
2021/09/28 11:11:08;;;;;;;2.33;1.10;;;;;;;;;;5068458;28;20496;-56
2021/09/28 11:13:36;;;;;;;5.78;1.52;;;;;;;;;;5072318;28;20103;-53
2021/09/28 11:16:02;;;;;;;1.83;1.00;;;;;;;;;;5072560;28;20035;-54
2021/09/28 11:18:29;;;;;;;1.67;1.10;;;;;;;;;;5073190;28;20053;-57
2021/09/28 11:21:07;;;;;;;4.13;1.20;;;;;;;;;;5073598;28;20021;-56
2021/09/28 11:23:32;;;;;;;2.58;0.90;;;;;;;;;;5073646;28;20692;-55
2021/09/28 11:25:58;;;;;;;4.25;1.27;;;;;;;;;;5067251;28;20108;-57
2021/09/28 11:28:24;;;;;;;2.90;1.05;;;;;;;;;;5068364;28;20510;-55
2021/09/28 11:30:52;;;;;;;1.70;1.08;;;;;;;;;;5072733;28;20052;-55
2021/09/28 11:33:19;;;;;;;3.30;0.90;;;;;;;;;;5073320;28;20054;-56
2021/09/28 11:35:56;;;;;;;2.50;0.82;;;;;;;;;;5071349;28;20112;-56
2021/09/28 11:38:26;;;;;;;2.92;1.05;;;;;;;;;;5072927;28;20028;-56
2021/09/28 11:40:57;;;;;;;4.88;1.05;;;;;;;;;;5076192;28;20025;-58
2021/09/28 11:43:25;;;;;;;4.28;0.93;;;;;;;;;;5071272;28;20030;-56
2021/09/28 11:46:01;;;;;;;2.05;0.63;;;;;;;;;;5070710;28;20025;-57
2021/09/28 11:48:27;;;;;;;5.60;1.02;;;;;;;;;;5072741;28;20020;-57
2021/09/28 11:50:54;;;;;;;4.13;0.98;;;;;;;;;;5071225;28;20111;-54
2021/09/28 11:53:20;;;;;;;2.75;0.50;;;;;;;;;;5072517;28;20496;-54
2021/09/28 11:55:46;;;;;;;2.40;0.50;;;;;;;;;;5068560;28;20118;-57
2021/09/28 11:58:12;;;;;;;3.65;0.73;;;;;;;;;;5072836;28;20029;-55
2021/09/28 12:00:42;;;;;;;2.20;0.60;;;;;;;;;;5072187;28;20024;-52
2021/09/28 12:03:09;;;;;;;6.80;0.95;;;;;;;;;;5068829;28;20035;-54
2021/09/28 12:06:03;;;;;;;1.85;0.63;;;;;;;;;;5072715;28;20032;-56
2021/09/28 12:08:32;;;;;;;2.72;0.80;;;;;;;;;;5075575;28;20031;-55
2021/09/28 12:11:02;;;;;;;5.72;0.40;;;;;;;;;;5072350;28;20020;-56
2021/09/28 12:13:29;;;;;;;6.90;1.15;;;;;;;;;;5073884;28;20061;-56
2021/09/28 12:15:59;;;;;;;3.17;0.80;;;;;;;;;;5069923;28;20027;-51
2021/09/28 12:18:25;;;;;;;1.35;0.68;;;;;;;;;;5072856;28;20041;-55
2021/09/28 12:20:51;;;;;;;3.17;0.80;;;;;;;;;;5072013;28;20075;-54
2021/09/28 12:23:17;;;;;;;3.60;0.55;;;;;;;;;;5071925;28;20473;-57
2021/09/28 12:25:45;;;;;;;2.70;0.60;;;;;;;;;;5068746;28;20418;-57
2021/09/28 12:28:15;;;;;;;3.30;0.52;;;;;;;;;;5066516;28;20083;-58
2021/09/28 12:30:51;;;;;;;1.52;0.57;;;;;;;;;;5074630;28;20032;-58
2021/09/28 12:33:17;;;;;;;2.15;0.50;;;;;;;;;;5069736;28;20516;-56
2021/09/28 12:35:44;;;;;;;3.80;0.40;;;;;;;;;;5070464;28;20032;-55
2021/09/28 12:38:11;;;;;;;0.88;0.50;;;;;;;;;;5069238;28;20103;-57
2021/09/28 12:40:43;;;;;;;3.08;0.60;;;;;;;;;;5072022;28;20021;-52
2021/09/28 12:43:11;;;;;;;3.43;0.60;;;;;;;;;;5071996;28;20064;-55
2021/09/28 12:45:47;;;;;;;0.65;0.38;;;;;;;;;;5071806;28;20031;-56
2021/09/28 12:48:14;;;;;;;1.67;0.40;;;;;;;;;;5067228;28;20020;-55
2021/09/28 12:50:41;;;;;;;1.40;0.68;;;;;;;;;;5069090;28;20071;-53
2021/09/28 12:53:08;;;;;;;0.98;0.45;;;;;;;;;;5071921;28;20036;-54
2021/09/28 12:55:36;;;;;;;1.15;0.32;;;;;;;;;;5071627;28;20036;-56
2021/09/28 12:58:03;;;;;;;1.17;0.43;;;;;;;;;;5071014;28;20752;-53
2021/09/28 13:00:29;;;;;;;4.45;0.50;;;;;;;;;;5070901;28;20078;-55
2021/09/28 13:02:55;;;;;;;1.00;0.30;;;;;;;;;;5071591;28;20032;-52
2021/09/28 13:05:22;;;;;;;2.13;0.40;;;;;;;;;;5068440;28;20477;-57
2021/09/28 13:07:49;;;;;;;1.45;0.70;;;;;;;;;;5071504;28;20095;-55
2021/09/28 13:10:15;;;;;;;1.27;0.38;;;;;;;;;;5072036;28;20036;-55
2021/09/28 13:12:42;;;;;;;1.77;0.57;;;;;;;;;;5071728;28;20074;-54
2021/09/28 13:15:08;;;;;;;3.47;0.43;;;;;;;;;;5075878;28;20032;-54
2021/09/28 13:17:34;;;;;;;1.48;0.30;;;;;;;;;;5075522;28;20056;-51
2021/09/28 13:20:02;;;;;;;1.98;0.52;;;;;;;;;;5075960;28;20063;-52
2021/09/28 13:22:28;;;;;;;1.70;0.38;;;;;;;;;;5074786;28;20062;-54
2021/09/28 13:24:54;;;;;;;1.20;0.30;;;;;;;;;;5075839;28;20028;-51
2021/09/28 13:27:20;;;;;;;2.83;0.43;;;;;;;;;;5076047;28;20050;-56
2021/09/28 13:29:46;;;;;;;2.47;0.50;;;;;;;;;;5075116;28;20442;-56
2021/09/28 13:32:13;;;;;;;0.98;0.30;;;;;;;;;;5071671;28;20032;-54
2021/09/28 13:34:39;;;;;;;1.08;0.22;;;;;;;;;;5075963;28;20040;-57
2021/09/28 13:37:05;;;;;;;1.48;0.40;;;;;;;;;;5074313;28;20033;-56
2021/09/28 13:39:32;;;;;;;3.92;1.05;;;;;;;;;;5071978;28;20048;-52
2021/09/28 13:41:58;;;;;;;1.58;0.30;;;;;;;;;;5075863;28;20081;-56
2021/09/28 13:44:24;;;;;;;0.63;0.20;;;;;;;;;;5075235;28;20494;-56
2021/09/28 13:46:50;;;;;;;0.52;0.20;;;;;;;;;;5071752;28;20350;-56
2021/09/28 13:49:16;;;;;;;1.48;0.43;;;;;;;;;;5074726;28;20028;-55
2021/09/28 13:51:42;;;;;;;0.75;0.25;;;;;;;;;;5075839;28;20025;-55
2021/09/28 13:54:08;;;;;;;0.90;0.20;;;;;;;;;;5071092;28;20021;-55
2021/09/28 13:56:34;;;;;;;0.88;0.20;;;;;;;;;;5075751;28;20017;-55
2021/09/28 13:59:00;;;;;;;1.13;0.30;;;;;;;;;;5082395;28;20044;-55
2021/09/28 14:01:27;;;;;;;5.22;0.30;;;;;;;;;;5071476;28;20060;-54
2021/09/28 14:03:53;;;;;;;1.75;0.30;;;;;;;;;;5072284;28;20085;-55
2021/09/28 14:06:19;;;;;;;1.10;0.30;;;;;;;;;;5068271;28;20025;-57
2021/09/28 14:08:46;;;;;;;5.45;0.45;;;;;;;;;;5074953;28;20115;-56
2021/09/28 14:11:15;;;;;;;0.30;0.20;;;;;;;;;;5072480;28;20107;-54
2021/09/28 14:13:41;;;;;;;0.75;0.10;;;;;;;;;;5070959;28;20103;-54
2021/09/28 14:16:07;;;;;;;0.88;0.20;;;;;;;;;;5070002;28;20166;-56
2021/09/28 14:18:33;;;;;;;1.10;0.28;;;;;;;;;;5073440;28;20045;-55
2021/09/28 14:21:00;;;;;;;0.50;0.22;;;;;;;;;;5067003;28;20496;-53
2021/09/28 14:23:26;;;;;;;2.67;0.30;;;;;;;;;;5078534;28;20522;-56
2021/09/28 14:25:52;;;;;;;0.50;0.30;;;;;;;;;;5070561;28;20039;-54
2021/09/28 14:28:18;;;;;;;0.52;0.20;;;;;;;;;;5071152;28;20032;-50
2021/09/28 14:30:44;;;;;;;0.60;0.32;;;;;;;;;;5068580;28;20468;-55
2021/09/28 14:33:10;;;;;;;0.70;0.20;;;;;;;;;;5067727;28;20060;-54
2021/09/28 14:35:38;;;;;;;1.30;0.70;;;;;;;;;;5071822;28;20075;-56
2021/09/28 14:38:04;;;;;;;1.75;0.40;;;;;;;;;;5071985;28;20025;-54
2021/09/28 14:40:30;;;;;;;0.82;0.40;;;;;;;;;;5067198;28;20027;-55
2021/09/28 14:42:57;;;;;;;1.75;0.35;;;;;;;;;;5070926;28;20032;-56
2021/09/28 14:45:23;;;;;;;0.63;0.30;;;;;;;;;;5080411;28;20423;-56
2021/09/28 14:47:49;;;;;;;1.35;0.50;;;;;;;;;;5077758;28;20025;-57